Perronville, Michigan
Current Conditions -  °F | °C
As of 11:35 PM on Saturday 22 Nov 2014 (Local Time) from KESC Reporting Station
Overcast Overcast  
Wind Chill: 37°   Ceiling: 1300
Heat Index: 37°   Visibility: 5mi
Dew Point: 34°   Wind: 0mph
Humidity: 87%   Direction: NA
Pressure: 29.74"   Gusts: NA
Location:  45.8°N, 87.35°W
Report Text: KESC 230535Z AUTO 00000KT 5SM OVC013 03/01 A2974 RMK AO1
Loading
Personal Weather Stations






























Interactive Weather Map New forecast layout! Learn more

10-Day Weather Forecast

Advertisements
Track Severe Weather on mobile